Biggs, Kentucky
Current Conditions -  °F | °C
As of 5:55 PM on Wednesday 17 Dec 2014 (Local Time) from KPBX Reporting Station
Clear Clear  
Wind Chill: 29°   Ceiling: Unl
Heat Index: 35°   Visibility: 10mi
Dew Point: 29°   Wind: 6mph
Humidity: 80%   Direction: 320°NW
Pressure: 30.16"   Gusts: NA
Location:  37.4208°N, 82.2164°W
Report Text: KPBX 172255Z AUTO 32005KT 10SM CLR 01/M02 A3016 RMK AO2 T00141017
Loading
Personal Weather Stations






























Interactive Weather Map New forecast layout! Learn more

10-Day Weather Forecast

Advertisements
Track Severe Weather on mobile